Northboro, Massachusetts
Current Conditions -  °F | °C
As of 5:54 PM on Saturday 20 Dec 2014 (Local Time) from KORH Reporting Station
Overcast Overcast  
Wind Chill: 22°   Ceiling: 1900
Heat Index: 29°   Visibility: 10mi
Dew Point: 23°   Wind: 7mph
Humidity: 78%   Direction: 40°NE
Pressure: 30.24"   Gusts: NA
Location:  42.3229°N, 71.6469°W
Report Text: KORH 202254Z 04006KT 10SM BKN019 OVC031 M02/M05 A3024 RMK AO2 SLP254 T10171050
Loading
Personal Weather Stations






























Interactive Weather Map New forecast layout! Learn more

10-Day Weather Forecast

Advertisements
Track Severe Weather on mobile